La Prairie, Illinois
Current Conditions -  °F | °C
As of 6:54 PM on Saturday 22 Nov 2014 (Local Time) from KUIN Reporting Station
Clear Clear  
Wind Chill: 54°   Ceiling: Unl
Heat Index: 54°   Visibility: 10mi
Dew Point: 48°   Wind: 12mph
Humidity: 80%   Direction: 180°S
Pressure: 29.84"   Gusts: NA
Location:  40.15°N, 91°W
Report Text: KUIN 230054Z AUTO 18010KT 10SM CLR 12/09 A2984 RMK AO2 SLP105 T01220089
Loading
Personal Weather Stations






























Interactive Weather Map New forecast layout! Learn more

10-Day Weather Forecast

Advertisements
Track Severe Weather on mobile